Time,TemperatureF,DewpointF,PressureIn,WindDirection,WindDirectionDegrees,WindSpeedMPH,WindSpeedGustMPH,Humidity,HourlyPrecipIn,Conditions,Clouds,dailyrainin,SoftwareType,DateUTC
2013-03-11 00:00:00,50.5,35.0,30.10,ESE,106,0.0,2.0,55,0.00,,---,0.00,VWS V14.01,2013-03-11 04:00:00,
2013-03-11 00:10:00,50.4,34.9,30.10,ESE,106,0.0,0.0,55,0.00,,---,0.00,VWS V14.01,2013-03-11 04:10:00,
2013-03-11 00:20:00,49.9,35.3,30.10,East,100,0.0,0.0,57,0.00,,---,0.00,VWS V14.01,2013-03-11 04:20:00,
2013-03-11 00:30:00,49.4,35.3,30.09,ESE,119,0.0,2.0,58,0.00,,---,0.00,VWS V14.01,2013-03-11 04:30:00,
2013-03-11 00:40:00,49.1,35.0,30.09,ESE,119,0.0,0.0,58,0.00,,---,0.00,VWS V14.01,2013-03-11 04:40:00,
2013-03-11 00:50:00,49.1,35.0,30.09,ESE,114,0.0,0.0,58,0.00,,---,0.00,VWS V14.01,2013-03-11 04:50:00,
2013-03-11 01:00:00,48.8,35.1,30.09,ESE,114,0.0,0.0,59,0.00,,---,0.00,VWS V14.01,2013-03-11 05:00:00,
2013-03-11 01:10:00,48.5,35.3,30.09,ESE,114,0.0,0.0,60,0.00,,---,0.00,VWS V14.01,2013-03-11 05:10:00,
2013-03-11 01:20:00,47.9,35.5,30.08,ESE,114,0.0,0.0,62,0.00,,---,0.00,VWS V14.01,2013-03-11 05:20:00,
2013-03-11 01:30:00,47.3,35.4,30.08,ESE,114,0.0,0.0,63,0.00,,---,0.00,VWS V14.01,2013-03-11 05:30:00,
2013-03-11 01:40:00,46.5,35.4,30.08,ESE,114,0.0,0.0,65,0.00,,---,0.00,VWS V14.01,2013-03-11 05:40:00,
2013-03-11 01:50:00,46.1,35.0,30.09,ESE,114,0.0,0.0,65,0.00,,---,0.00,VWS V14.01,2013-03-11 05:50:00,
2013-03-11 02:00:00,46.1,35.0,30.08,ESE,114,0.0,0.0,65,0.00,,---,0.00,VWS V14.01,2013-03-11 06:00:00,
2013-03-11 02:10:00,45.4,35.1,30.08,ESE,114,0.0,0.0,67,0.00,,---,0.00,VWS V14.01,2013-03-11 06:10:00,
2013-03-11 02:20:00,45.1,35.2,30.09,ESE,114,0.0,0.0,68,0.00,,---,0.00,VWS V14.01,2013-03-11 06:20:00,
2013-03-11 02:30:00,45.1,35.5,30.08,ESE,114,0.0,0.0,69,0.00,,---,0.00,VWS V14.01,2013-03-11 06:30:00,
2013-03-11 02:40:00,45.7,35.4,30.08,ESE,114,0.0,2.0,67,0.00,,---,0.00,VWS V14.01,2013-03-11 06:40:00,
2013-03-11 02:50:00,45.7,35.4,30.07,ESE,116,0.0,1.0,67,0.00,,---,0.00,VWS V14.01,2013-03-11 06:50:00,
2013-03-11 03:00:00,45.4,35.1,30.06,ESE,120,0.0,3.0,67,0.00,,---,0.00,VWS V14.01,2013-03-11 07:00:00,
2013-03-11 03:10:00,45.1,34.0,30.06,ESE,123,0.0,2.0,65,0.00,,---,0.00,VWS V14.01,2013-03-11 07:10:00,
2013-03-11 03:20:00,44.6,34.0,30.06,SE,126,0.0,0.0,66,0.00,,---,0.00,VWS V14.01,2013-03-11 07:20:00,
2013-03-11 03:30:00,44.3,33.3,30.06,ESE,121,0.0,0.0,65,0.00,,---,0.00,VWS V14.01,2013-03-11 07:30:00,
2013-03-11 03:40:00,44.1,33.1,30.06,ESE,121,0.0,0.0,65,0.00,,---,0.00,VWS V14.01,2013-03-11 07:40:00,
2013-03-11 03:50:00,43.6,34.1,30.05,ESE,121,0.0,0.0,69,0.00,,---,0.00,VWS V14.01,2013-03-11 07:50:00,
2013-03-11 04:00:00,42.8,33.7,30.05,ESE,121,0.0,0.0,70,0.00,,---,0.00,VWS V14.01,2013-03-11 08:00:00,
2013-03-11 04:10:00,42.3,33.6,30.05,ESE,121,0.0,0.0,71,0.00,,---,0.00,VWS V14.01,2013-03-11 08:10:00,
2013-03-11 04:20:00,42.2,33.5,30.03,ESE,121,0.0,0.0,71,0.00,,---,0.00,VWS V14.01,2013-03-11 08:20:00,
2013-03-11 04:30:00,41.8,33.5,30.03,ESE,121,0.0,0.0,72,0.00,,---,0.00,VWS V14.01,2013-03-11 08:30:00,
2013-03-11 04:40:00,41.3,33.7,30.03,ESE,121,0.0,0.0,74,0.00,,---,0.00,VWS V14.01,2013-03-11 08:40:00,
2013-03-11 04:50:00,40.9,33.6,30.03,ESE,121,0.0,0.0,75,0.00,,---,0.00,VWS V14.01,2013-03-11 08:50:00,
2013-03-11 05:00:00,41.1,35.7,30.02,ESE,121,0.0,0.0,81,0.00,,---,0.00,VWS V14.01,2013-03-11 09:00:00,
2013-03-11 05:10:00,40.8,35.7,30.02,ESE,123,0.0,0.0,82,0.00,,---,0.00,VWS V14.01,2013-03-11 09:10:00,
2013-03-11 05:20:00,40.3,35.2,30.03,ESE,121,0.0,0.0,82,0.00,,---,0.00,VWS V14.01,2013-03-11 09:20:00,
2013-03-11 05:30:00,40.2,36.3,30.02,ESE,121,0.0,0.0,86,0.00,,---,0.00,VWS V14.01,2013-03-11 09:30:00,
2013-03-11 05:40:00,40.2,36.7,30.02,ESE,121,0.0,0.0,87,0.00,,---,0.00,VWS V14.01,2013-03-11 09:40:00,
2013-03-11 05:50:00,40.2,36.7,30.02,ESE,121,0.0,0.0,87,0.00,,---,0.00,VWS V14.01,2013-03-11 09:50:00,
2013-03-11 06:00:00,40.1,37.1,30.03,ESE,121,0.0,0.0,89,0.00,,---,0.00,VWS V14.01,2013-03-11 10:00:00,
2013-03-11 06:10:00,39.9,37.5,30.03,ESE,121,0.0,0.0,91,0.00,,---,0.00,VWS V14.01,2013-03-11 10:10:00,
2013-03-11 06:20:00,40.1,38.0,30.03,ESE,121,0.0,0.0,92,0.00,,---,0.00,VWS V14.01,2013-03-11 10:20:00,
2013-03-11 06:30:00,40.3,38.2,30.03,ESE,121,0.0,0.0,92,0.00,,---,0.00,VWS V14.01,2013-03-11 10:30:00,
2013-03-11 06:40:00,40.8,39.2,30.03,ESE,121,0.0,0.0,94,0.00,,---,0.00,VWS V14.01,2013-03-11 10:40:00,
2013-03-11 06:50:00,40.9,39.8,30.03,ESE,107,0.0,2.0,96,0.00,,---,0.00,VWS V14.01,2013-03-11 10:50:00,
2013-03-11 07:00:00,40.9,39.8,30.02,ESE,107,0.0,0.0,96,0.00,,---,0.00,VWS V14.01,2013-03-11 11:00:00,
2013-03-11 07:10:00,40.9,40.4,30.02,ESE,107,0.0,0.0,98,0.00,,---,0.00,VWS V14.01,2013-03-11 11:10:00,
2013-03-11 07:20:00,40.9,40.4,30.03,ESE,107,0.0,0.0,98,0.00,,---,0.00,VWS V14.01,2013-03-11 11:20:00,
2013-03-11 07:30:00,41.1,40.8,30.03,ESE,107,0.0,0.0,99,0.00,,---,0.00,VWS V14.01,2013-03-11 11:30:00,
2013-03-11 07:40:00,41.2,41.2,30.03,ESE,107,0.0,0.0,100,0.00,,---,0.00,VWS V14.01,2013-03-11 11:40:00,
2013-03-11 07:50:00,41.5,41.5,30.03,ESE,107,0.0,0.0,100,0.00,,---,0.00,VWS V14.01,2013-03-11 11:50:00,
2013-03-11 08:00:00,41.9,41.9,30.03,ESE,107,0.0,0.0,100,0.00,,---,0.00,VWS V14.01,2013-03-11 12:00:00,
2013-03-11 08:10:00,42.3,42.3,30.03,ESE,110,0.0,0.0,100,0.00,,---,0.00,VWS V14.01,2013-03-11 12:10:00,
2013-03-11 08:20:00,42.6,42.6,30.03,ESE,110,0.0,0.0,100,0.00,,---,0.00,VWS V14.01,2013-03-11 12:20:00,
2013-03-11 08:30:00,43.2,43.2,30.03,ESE,110,0.0,0.0,100,0.00,,---,0.00,VWS V14.01,2013-03-11 12:30:00,
2013-03-11 08:40:00,43.8,43.8,30.03,East,88,0.0,2.0,100,0.00,,---,0.00,VWS V14.01,2013-03-11 12:40:00,
2013-03-11 08:50:00,44.3,44.3,30.02,East,86,0.0,3.0,100,0.00,,---,0.00,VWS V14.01,2013-03-11 12:50:00,
2013-03-11 09:00:00,45.1,45.1,30.02,East,95,0.0,5.0,100,0.00,,---,0.00,VWS V14.01,2013-03-11 13:00:00,
2013-03-11 09:10:00,46.0,46.0,30.02,East,95,0.0,0.0,100,0.00,,---,0.00,VWS V14.01,2013-03-11 13:10:00,
2013-03-11 09:20:00,46.7,46.7,30.02,East,100,0.0,2.0,100,0.00,,---,0.00,VWS V14.01,2013-03-11 13:20:00,
2013-03-11 09:30:00,47.6,47.6,30.02,East,99,0.0,2.0,100,0.00,,---,0.00,VWS V14.01,2013-03-11 13:30:00,
2013-03-11 09:40:00,48.6,48.6,30.02,NE,35,0.0,6.0,100,0.00,,---,0.00,VWS V14.01,2013-03-11 13:40:00,
2013-03-11 09:50:00,49.5,49.5,30.02,ESE,114,0.0,2.0,100,0.00,,---,0.00,VWS V14.01,2013-03-11 13:50:00,
2013-03-11 10:00:00,50.8,50.8,30.02,East,89,0.0,5.0,100,0.00,,---,0.00,VWS V14.01,2013-03-11 14:00:00,
2013-03-11 10:10:00,52.2,51.9,30.02,SSE,157,0.0,6.0,99,0.00,,---,0.00,VWS V14.01,2013-03-11 14:10:00,
2013-03-11 10:20:00,53.6,52.5,30.01,East,96,0.0,4.0,96,0.00,,---,0.00,VWS V14.01,2013-03-11 14:20:00,
2013-03-11 10:30:00,54.8,53.1,30.00,ENE,69,0.0,3.0,94,0.00,,---,0.00,VWS V14.01,2013-03-11 14:30:00,
2013-03-11 10:40:00,55.6,53.3,30.00,ESE,117,0.0,6.0,92,0.00,,---,0.00,VWS V14.01,2013-03-11 14:40:00,
2013-03-11 10:50:00,56.5,53.9,29.99,East,99,0.0,5.0,91,0.00,,---,0.00,VWS V14.01,2013-03-11 14:50:00,
2013-03-11 11:00:00,57.2,54.3,30.00,NE,56,0.0,4.0,90,0.00,,---,0.00,VWS V14.01,2013-03-11 15:00:00,
2013-03-11 11:10:00,58.3,54.5,30.00,East,100,0.0,6.0,87,0.00,,---,0.00,VWS V14.01,2013-03-11 15:10:00,
2013-03-11 11:20:00,59.3,55.1,29.98,SSE,147,1.0,6.0,86,0.00,,---,0.00,VWS V14.01,2013-03-11 15:20:00,
2013-03-11 11:30:00,60.5,55.3,29.98,ENE,75,0.0,5.0,83,0.00,,---,0.00,VWS V14.01,2013-03-11 15:30:00,
2013-03-11 11:40:00,62.3,57.1,29.98,West,267,0.0,7.0,83,0.00,,---,0.00,VWS V14.01,2013-03-11 15:40:00,
2013-03-11 11:50:00,63.1,55.8,29.99,SSE,151,2.0,7.0,77,0.00,,---,0.00,VWS V14.01,2013-03-11 15:50:00,
2013-03-11 12:00:00,64.3,55.5,29.98,SSE,152,0.0,6.0,73,0.00,,---,0.00,VWS V14.01,2013-03-11 16:00:00,
2013-03-11 12:10:00,64.3,55.1,29.98,East,99,6.0,10.0,72,0.00,,---,0.00,VWS V14.01,2013-03-11 16:10:00,
2013-03-11 12:20:00,64.2,55.4,29.98,South,175,3.0,11.0,73,0.00,,---,0.00,VWS V14.01,2013-03-11 16:20:00,
2013-03-11 12:30:00,64.5,55.3,29.97,SE,127,2.0,7.0,72,0.00,,---,0.00,VWS V14.01,2013-03-11 16:30:00,
2013-03-11 12:40:00,65.5,55.9,29.97,SSE,148,0.0,13.0,71,0.00,,---,0.00,VWS V14.01,2013-03-11 16:40:00,
2013-03-11 12:50:00,66.4,55.9,29.97,ESE,107,6.0,6.0,69,0.00,,---,0.00,VWS V14.01,2013-03-11 16:50:00,
2013-03-11 13:00:00,66.9,56.4,29.96,SE,130,4.0,6.0,69,0.00,,---,0.00,VWS V14.01,2013-03-11 17:00:00,
2013-03-11 13:10:00,67.1,56.2,29.96,ESE,117,0.0,9.0,68,0.00,,---,0.00,VWS V14.01,2013-03-11 17:10:00,
2013-03-11 13:20:00,66.4,55.5,29.95,SE,137,3.0,12.0,68,0.00,,---,0.00,VWS V14.01,2013-03-11 17:20:00,
2013-03-11 13:30:00,67.1,55.8,29.94,South,189,1.0,11.0,67,0.00,,---,0.00,VWS V14.01,2013-03-11 17:30:00,
2013-03-11 13:40:00,67.9,56.5,29.94,SE,141,0.0,3.0,67,0.00,,---,0.00,VWS V14.01,2013-03-11 17:40:00,
2013-03-11 13:50:00,68.1,55.9,29.94,SSE,152,0.0,9.0,65,0.00,,---,0.00,VWS V14.01,2013-03-11 17:50:00,
2013-03-11 14:00:00,68.1,55.9,29.92,NE,42,0.0,11.0,65,0.00,,---,0.00,VWS V14.01,2013-03-11 18:00:00,
2013-03-11 14:10:00,68.1,56.3,29.92,South,174,0.0,5.0,66,0.00,,---,0.00,VWS V14.01,2013-03-11 18:10:00,
2013-03-11 14:20:00,68.6,56.4,29.92,SSE,158,0.0,7.0,65,0.00,,---,0.00,VWS V14.01,2013-03-11 18:20:00,
2013-03-11 14:30:00,68.4,55.8,29.91,ESE,104,3.0,12.0,64,0.00,,---,0.00,VWS V14.01,2013-03-11 18:30:00,
2013-03-11 14:40:00,67.6,55.4,29.91,SE,144,0.0,9.0,65,0.00,,---,0.00,VWS V14.01,2013-03-11 18:40:00,
2013-03-11 14:50:00,67.4,55.2,29.90,SSE,160,0.0,7.0,65,0.00,,---,0.00,VWS V14.01,2013-03-11 18:50:00,
2013-03-11 15:00:00,68.1,55.5,29.89,SSE,154,1.0,8.0,64,0.00,,---,0.00,VWS V14.01,2013-03-11 19:00:00,
2013-03-11 15:10:00,68.1,55.5,29.89,SE,124,0.0,12.0,64,0.00,,---,0.00,VWS V14.01,2013-03-11 19:10:00,
2013-03-11 15:20:00,68.4,55.8,29.88,East,93,6.0,13.0,64,0.00,,---,0.00,VWS V14.01,2013-03-11 19:20:00,
2013-03-11 15:30:00,68.4,55.8,29.87,SSE,157,0.0,8.0,64,0.00,,---,0.00,VWS V14.01,2013-03-11 19:30:00,
2013-03-11 15:40:00,68.6,56.0,29.87,East,93,5.0,8.0,64,0.00,,---,0.00,VWS V14.01,2013-03-11 19:40:00,
2013-03-11 15:50:00,68.3,55.7,29.87,East,100,3.0,11.0,64,0.00,,---,0.00,VWS V14.01,2013-03-11 19:50:00,
2013-03-11 16:00:00,67.9,55.7,29.86,South,185,3.0,11.0,65,0.00,,---,0.00,VWS V14.01,2013-03-11 20:00:00,
2013-03-11 16:10:00,67.8,56.0,29.86,SSE,151,0.0,7.0,66,0.00,,---,0.00,VWS V14.01,2013-03-11 20:10:00,
2013-03-11 16:20:00,67.9,56.1,29.84,ESE,109,1.0,7.0,66,0.00,,---,0.00,VWS V14.01,2013-03-11 20:20:00,
2013-03-11 16:30:00,67.1,56.2,29.84,SE,128,7.0,11.0,68,0.00,,---,0.00,VWS V14.01,2013-03-11 20:30:00,
2013-03-11 16:40:00,66.8,56.3,29.84,ESE,120,2.0,11.0,69,0.00,,---,0.00,VWS V14.01,2013-03-11 20:40:00,
2013-03-11 16:50:00,66.6,56.9,29.84,ESE,116,1.0,7.0,71,0.00,,---,0.00,VWS V14.01,2013-03-11 20:50:00,
2013-03-11 17:00:00,66.4,56.7,29.84,ESE,123,6.0,10.0,71,0.00,,---,0.00,VWS V14.01,2013-03-11 21:00:00,
2013-03-11 17:10:00,66.4,56.7,29.84,SE,138,0.0,8.0,71,0.00,,---,0.00,VWS V14.01,2013-03-11 21:10:00,
2013-03-11 17:20:00,66.1,56.8,29.84,South,179,0.0,8.0,72,0.00,,---,0.00,VWS V14.01,2013-03-11 21:20:00,
2013-03-11 17:30:00,65.8,56.9,29.85,ESE,114,1.0,7.0,73,0.00,,---,0.00,VWS V14.01,2013-03-11 21:30:00,
2013-03-11 17:40:00,65.6,57.1,29.85,ESE,123,12.0,12.0,74,0.00,,---,0.00,VWS V14.01,2013-03-11 21:40:00,
2013-03-11 17:50:00,65.6,57.5,29.86,ESE,112,0.0,12.0,75,0.00,,---,0.00,VWS V14.01,2013-03-11 21:50:00,
2013-03-11 18:00:00,65.5,57.4,29.85,SE,124,7.0,13.0,75,0.00,,---,0.00,VWS V14.01,2013-03-11 22:00:00,
2013-03-11 18:10:00,65.3,57.2,29.85,SE,127,3.0,12.0,75,0.00,,---,0.00,VWS V14.01,2013-03-11 22:10:00,
2013-03-11 18:20:00,65.2,57.1,29.84,SE,130,3.0,11.0,75,0.00,,---,0.00,VWS V14.01,2013-03-11 22:20:00,
2013-03-11 18:30:00,64.8,57.1,29.84,East,92,6.0,8.0,76,0.00,,---,0.00,VWS V14.01,2013-03-11 22:30:00,
2013-03-11 18:40:00,64.7,57.0,29.84,ESE,119,2.0,8.0,76,0.00,,---,0.00,VWS V14.01,2013-03-11 22:40:00,
2013-03-11 18:50:00,64.5,57.1,29.83,ESE,117,4.0,11.0,77,0.00,,---,0.00,VWS V14.01,2013-03-11 22:50:00,
2013-03-11 19:00:00,64.3,57.3,29.83,East,97,7.0,12.0,78,0.00,,---,0.00,VWS V14.01,2013-03-11 23:00:00,
2013-03-11 19:10:00,63.7,57.4,29.83,SSE,147,6.0,12.0,80,0.00,,---,0.00,VWS V14.01,2013-03-11 23:10:00,
2013-03-11 19:20:00,63.2,57.6,29.82,ESE,110,6.0,10.0,82,0.00,,---,0.00,VWS V14.01,2013-03-11 23:20:00,
2013-03-11 19:30:00,62.7,57.5,29.81,SE,134,0.0,11.0,83,0.00,,---,0.00,VWS V14.01,2013-03-11 23:30:00,
2013-03-11 19:40:00,62.4,57.5,29.81,ESE,121,6.0,8.0,84,0.00,,---,0.00,VWS V14.01,2013-03-11 23:40:00,
2013-03-11 19:50:00,62.3,57.7,29.82,SE,124,2.0,10.0,85,0.00,,---,0.00,VWS V14.01,2013-03-11 23:50:00,
2013-03-11 20:00:00,62.0,57.5,29.82,ESE,119,0.0,10.0,85,0.00,,---,0.00,VWS V14.01,2013-03-12 00:00:00,
2013-03-11 20:10:00,61.8,57.6,29.82,SE,144,1.0,7.0,86,0.00,,---,0.00,VWS V14.01,2013-03-12 00:10:00,
2013-03-11 20:20:00,61.6,57.4,29.82,SE,134,2.0,8.0,86,0.00,,---,0.00,VWS V14.01,2013-03-12 00:20:00,
2013-03-11 20:30:00,61.6,57.4,29.83,SSE,148,2.0,7.0,86,0.00,,---,0.00,VWS V14.01,2013-03-12 00:30:00,
2013-03-11 20:40:00,61.8,57.2,29.83,ESE,104,0.0,5.0,85,0.00,,---,0.00,VWS V14.01,2013-03-12 00:40:00,
2013-03-11 20:50:00,62.0,57.5,29.83,SE,127,0.0,8.0,85,0.00,,---,0.00,VWS V14.01,2013-03-12 00:50:00,
2013-03-11 21:00:00,62.0,57.1,29.83,East,92,3.0,7.0,84,0.00,,---,0.00,VWS V14.01,2013-03-12 01:00:00,
2013-03-11 21:10:00,62.1,56.9,29.83,East,80,5.0,13.0,83,0.00,,---,0.00,VWS V14.01,2013-03-12 01:10:00,
2013-03-11 21:20:00,62.3,57.1,29.83,SSE,158,6.0,13.0,83,0.00,,---,0.00,VWS V14.01,2013-03-12 01:20:00,
2013-03-11 21:30:00,62.1,56.9,29.83,SSE,150,6.0,12.0,83,0.00,,---,0.00,VWS V14.01,2013-03-12 01:30:00,
2013-03-11 21:40:00,62.0,57.1,29.83,SE,126,6.0,6.0,84,0.00,,---,0.00,VWS V14.01,2013-03-12 01:40:00,
2013-03-11 21:50:00,61.8,56.9,29.82,ESE,123,3.0,11.0,84,0.00,,---,0.00,VWS V14.01,2013-03-12 01:50:00,
2013-03-11 22:00:00,61.6,57.0,29.83,ESE,123,0.0,7.0,85,0.00,,---,0.00,VWS V14.01,2013-03-12 02:00:00,
2013-03-11 22:10:00,61.5,57.0,29.83,SE,141,3.0,11.0,85,0.00,,---,0.00,VWS V14.01,2013-03-12 02:10:00,
2013-03-11 22:20:00,61.3,57.1,29.82,ENE,72,0.0,6.0,86,0.00,,---,0.00,VWS V14.01,2013-03-12 02:20:00,
2013-03-11 22:30:00,61.2,57.0,29.81,ESE,107,2.0,7.0,86,0.00,,---,0.00,VWS V14.01,2013-03-12 02:30:00,
2013-03-11 22:40:00,61.2,57.0,29.81,ENE,76,1.0,6.0,86,0.00,,---,0.00,VWS V14.01,2013-03-12 02:40:00,
2013-03-11 22:50:00,60.9,57.0,29.81,SE,128,0.0,6.0,87,0.00,,---,0.00,VWS V14.01,2013-03-12 02:50:00,
2013-03-11 23:00:00,60.9,57.0,29.82,East,97,1.0,7.0,87,0.00,,---,0.00,VWS V14.01,2013-03-12 03:00:00,
2013-03-11 23:10:00,60.7,56.8,29.82,SE,136,0.0,7.0,87,0.00,,---,0.00,VWS V14.01,2013-03-12 03:10:00,
2013-03-11 23:20:00,60.7,57.1,29.82,SE,127,8.0,10.0,88,0.00,,---,0.00,VWS V14.01,2013-03-12 03:20:00,
2013-03-11 23:30:00,60.5,56.9,29.82,ESE,110,0.0,8.0,88,0.00,,---,0.00,VWS V14.01,2013-03-12 03:30:00,
2013-03-11 23:40:00,60.4,57.2,29.82,SE,130,0.0,5.0,89,0.00,,---,0.00,VWS V14.01,2013-03-12 03:40:00,
2013-03-11 23:50:00,60.2,57.0,29.81,SSE,152,3.0,4.0,89,0.00,,---,0.00,VWS V14.01,2013-03-12 03:50:00,